Time;durP1;ratioP1;P1;durP2;ratioP2;P2;SDS_P1;SDS_P2;PMS_P1;PMS_P2;Temp;Humidity;BMP_temperature;BMP_pressure;BME280_temperature;BME280_humidity;BME280_pressure;Samples;Min_cycle;Max_cycle;Signal;HPM_P1;HPM_P2
2021/01/26 00:00:25;;;;;;;4.30;3.50;;;-2.10;99.90;;;;;;2081094;28;20182;-65
2021/01/26 00:01:26;;;;;;;4.80;3.53;;;-2.10;99.90;;;;;;2080570;28;20564;-66
2021/01/26 00:02:26;;;;;;;3.70;3.23;;;-2.10;99.90;;;;;;2080981;28;20472;-66
2021/01/26 00:03:27;;;;;;;4.17;3.23;;;-2.10;99.90;;;;;;2081293;28;20212;-66
2021/01/26 00:04:28;;;;;;;4.17;3.50;;;-2.00;99.90;;;;;;2080889;28;20693;-66
2021/01/26 00:05:28;;;;;;;5.23;3.77;;;-2.00;99.90;;;;;;2081099;28;20191;-66
2021/01/26 00:06:29;;;;;;;4.47;3.47;;;-2.10;99.90;;;;;;2081036;28;20352;-65
2021/01/26 00:07:30;;;;;;;4.67;3.53;;;-2.10;99.90;;;;;;2081038;28;20216;-66
2021/01/26 00:08:31;;;;;;;4.87;3.30;;;-2.10;99.90;;;;;;2080932;28;20213;-66
2021/01/26 00:09:32;;;;;;;4.15;3.40;;;-2.10;99.90;;;;;;2081158;28;20195;-65
2021/01/26 00:10:33;;;;;;;7.47;3.97;;;-2.10;99.90;;;;;;2080926;28;20653;-66
2021/01/26 00:11:34;;;;;;;4.67;3.40;;;-2.10;99.90;;;;;;2080429;28;20910;-66
2021/01/26 00:12:35;;;;;;;5.07;4.17;;;-2.10;99.90;;;;;;2080833;28;20832;-65
2021/01/26 00:13:36;;;;;;;5.60;4.05;;;-2.10;99.90;;;;;;2080456;28;20181;-66
2021/01/26 00:14:37;;;;;;;4.80;3.47;;;-2.20;99.90;;;;;;2080164;28;20240;-65
2021/01/26 00:15:38;;;;;;;5.87;3.80;;;-2.20;99.90;;;;;;2081074;28;20182;-66
2021/01/26 00:16:39;;;;;;;4.57;3.50;;;-2.20;99.90;;;;;;2080966;28;20554;-65
2021/01/26 00:17:39;;;;;;;5.47;3.80;;;-2.30;99.90;;;;;;2080988;28;20220;-66
2021/01/26 00:18:40;;;;;;;4.83;3.57;;;-2.30;99.90;;;;;;2080841;28;20213;-65
2021/01/26 00:19:41;;;;;;;4.80;3.60;;;-2.30;99.90;;;;;;2081157;28;20186;-65
2021/01/26 00:20:43;;;;;;;4.77;3.80;;;-2.40;99.90;;;;;;2080686;28;20708;-66
2021/01/26 00:21:44;;;;;;;4.47;3.20;;;-2.40;99.90;;;;;;2080345;28;20560;-66
2021/01/26 00:22:45;;;;;;;5.97;3.40;;;-2.40;99.90;;;;;;2080802;28;20190;-65
2021/01/26 00:23:45;;;;;;;4.80;3.13;;;-2.50;99.90;;;;;;2080434;28;20173;-65
2021/01/26 00:24:46;;;;;;;6.07;4.10;;;-2.50;99.90;;;;;;2080046;28;20222;-65
2021/01/26 00:25:47;;;;;;;5.20;3.43;;;-2.50;99.90;;;;;;2081155;28;20206;-66
2021/01/26 00:26:47;;;;;;;5.57;3.67;;;-2.50;99.90;;;;;;2080774;28;20201;-65
2021/01/26 00:27:48;;;;;;;5.13;3.83;;;-2.50;99.90;;;;;;2081025;28;20179;-65
2021/01/26 00:28:49;;;;;;;4.23;3.20;;;-2.50;99.90;;;;;;2080870;28;20639;-66
2021/01/26 00:29:50;;;;;;;4.33;3.43;;;-2.50;99.90;;;;;;2081042;28;20564;-65
2021/01/26 00:30:50;;;;;;;4.43;3.37;;;-2.60;99.90;;;;;;2079611;28;20256;-65
2021/01/26 00:31:51;;;;;;;5.33;3.27;;;-2.60;99.90;;;;;;2081947;28;20420;-65
2021/01/26 00:32:52;;;;;;;5.90;3.90;;;-2.60;99.90;;;;;;2082478;28;20209;-66
2021/01/26 00:33:53;;;;;;;6.30;4.20;;;-2.60;99.90;;;;;;2082602;28;20648;-66
2021/01/26 00:34:54;;;;;;;6.00;3.13;;;-2.70;99.90;;;;;;2082528;28;20196;-66
2021/01/26 00:35:54;;;;;;;5.40;3.93;;;-2.70;99.90;;;;;;2082535;28;20169;-66
2021/01/26 00:36:55;;;;;;;4.87;3.87;;;-2.70;99.90;;;;;;2082669;28;20173;-66
2021/01/26 00:37:58;;;;;;;4.90;3.77;;;-2.80;99.90;;;;;;2082503;28;20194;-66
2021/01/26 00:38:59;;;;;;;5.50;4.25;;;-2.80;99.90;;;;;;2082622;28;20176;-65
2021/01/26 00:40:00;;;;;;;5.13;3.63;;;-2.80;99.90;;;;;;2082544;28;20638;-65
2021/01/26 00:41:00;;;;;;;4.87;3.40;;;-2.80;99.90;;;;;;2081970;28;20181;-65
2021/01/26 00:42:01;;;;;;;5.57;3.77;;;-2.80;99.90;;;;;;2082394;28;20201;-66
2021/01/26 00:43:02;;;;;;;5.17;3.33;;;-2.90;99.90;;;;;;2082444;28;20205;-66
2021/01/26 00:44:03;;;;;;;4.87;3.50;;;-2.90;99.90;;;;;;2082453;28;20304;-66
2021/01/26 00:45:06;;;;;;;4.72;3.72;;;-2.80;99.90;;;;;;2082468;28;20274;-66
2021/01/26 00:46:07;;;;;;;4.55;3.50;;;-2.80;99.90;;;;;;2082520;28;20189;-66
2021/01/26 00:47:08;;;;;;;5.17;3.67;;;-2.80;99.90;;;;;;2082501;28;20176;-65
2021/01/26 00:48:09;;;;;;;5.33;3.63;;;-2.80;99.90;;;;;;2082419;28;20173;-66
2021/01/26 00:49:09;;;;;;;5.40;3.55;;;-2.80;99.90;;;;;;2082359;28;20172;-65
2021/01/26 00:50:11;;;;;;;5.67;3.70;;;-2.80;99.90;;;;;;2082405;28;20212;-66
2021/01/26 00:51:12;;;;;;;6.68;3.47;;;-2.80;99.90;;;;;;2081720;28;20206;-66
2021/01/26 00:52:13;;;;;;;5.80;3.87;;;-2.90;99.90;;;;;;2082686;28;20182;-65
2021/01/26 00:53:14;;;;;;;6.38;3.83;;;-2.90;99.90;;;;;;2094041;28;20195;-65
2021/01/26 00:54:15;;;;;;;4.93;3.70;;;-2.90;99.90;;;;;;2097906;28;20236;-66
2021/01/26 00:55:19;;;;;;;5.27;3.67;;;-3.00;99.90;;;;;;2090584;28;20210;-65
2021/01/26 00:56:20;;;;;;;6.03;3.70;;;-3.00;99.90;;;;;;2090524;28;20213;-66
2021/01/26 00:57:21;;;;;;;5.15;3.78;;;-3.10;99.90;;;;;;2090583;28;20188;-66
2021/01/26 00:58:22;;;;;;;5.43;3.77;;;-3.10;99.90;;;;;;2090652;28;20263;-65
2021/01/26 00:59:22;;;;;;;5.43;3.60;;;-3.20;99.90;;;;;;2090363;28;20180;-66
2021/01/26 01:00:31;;;;;;;7.03;3.93;;;-3.20;99.90;;;;;;2090549;28;20668;-66
2021/01/26 01:01:32;;;;;;;5.25;3.47;;;-3.20;99.90;;;;;;2090034;28;20244;-66
2021/01/26 01:02:33;;;;;;;5.13;3.63;;;-3.30;99.90;;;;;;2090463;28;20217;-66
2021/01/26 01:03:33;;;;;;;5.23;3.80;;;-3.40;99.90;;;;;;2098132;28;20233;-66
2021/01/26 01:04:36;;;;;;;5.13;3.80;;;-3.40;99.90;;;;;;2098008;28;20243;-65
2021/01/26 01:05:36;;;;;;;8.15;3.95;;;-3.40;99.90;;;;;;2090421;28;20180;-66
2021/01/26 01:06:37;;;;;;;6.43;4.27;;;-3.40;99.90;;;;;;2090552;28;20547;-65
2021/01/26 01:07:38;;;;;;;5.73;3.97;;;-3.50;99.90;;;;;;2090555;28;20172;-66
2021/01/26 01:08:38;;;;;;;7.63;4.50;;;-3.50;99.90;;;;;;2090638;28;20168;-66
2021/01/26 01:09:39;;;;;;;6.43;4.10;;;-3.50;99.90;;;;;;2090614;28;20554;-66
2021/01/26 01:10:40;;;;;;;5.73;4.03;;;-3.60;99.90;;;;;;2090517;28;20184;-65
2021/01/26 01:11:41;;;;;;;5.25;3.40;;;-3.70;99.90;;;;;;2089953;28;20176;-65
2021/01/26 01:12:42;;;;;;;5.73;3.90;;;-3.60;99.90;;;;;;2090417;28;20204;-65
2021/01/26 01:13:43;;;;;;;5.67;3.87;;;-3.60;99.90;;;;;;2090632;28;20179;-66
2021/01/26 01:14:43;;;;;;;5.73;3.63;;;-3.70;99.90;;;;;;2090544;28;20238;-65
2021/01/26 01:15:44;;;;;;;5.20;3.80;;;-3.60;99.90;;;;;;2090713;28;20272;-65
2021/01/26 01:16:45;;;;;;;5.47;3.97;;;-3.60;99.90;;;;;;2090097;28;20255;-66
2021/01/26 01:17:48;;;;;;;5.25;3.78;;;-3.70;99.90;;;;;;2090309;28;20183;-65
2021/01/26 01:18:48;;;;;;;7.30;4.60;;;-3.60;99.90;;;;;;2090671;28;20242;-65
2021/01/26 01:19:49;;;;;;;5.57;3.80;;;-3.60;99.90;;;;;;2090570;28;20230;-65
2021/01/26 01:20:50;;;;;;;6.27;4.00;;;-3.60;99.90;;;;;;2089667;28;20180;-66
2021/01/26 01:21:51;;;;;;;6.07;4.10;;;-3.60;99.90;;;;;;2090309;28;20183;-66
2021/01/26 01:22:51;;;;;;;6.10;4.10;;;-3.60;99.90;;;;;;2090422;28;20177;-65
2021/01/26 01:23:52;;;;;;;5.10;3.80;;;-3.60;99.90;;;;;;2090350;28;20550;-68
2021/01/26 01:24:53;;;;;;;6.50;4.27;;;-3.60;99.90;;;;;;2090330;28;20227;-66
2021/01/26 01:25:59;;;;;;;5.70;3.97;;;-3.60;99.90;;;;;;2090239;28;20177;-65
2021/01/26 01:27:00;;;;;;;4.50;3.40;;;-3.60;99.90;;;;;;2090488;28;20168;-65
2021/01/26 01:28:01;;;;;;;7.57;4.40;;;-3.60;99.90;;;;;;2090395;28;20210;-65
2021/01/26 01:29:02;;;;;;;6.20;4.07;;;-3.60;99.90;;;;;;2090346;28;20200;-65
2021/01/26 01:30:07;;;;;;;5.55;3.83;;;-3.60;99.90;;;;;;2090377;28;20550;-65
2021/01/26 01:31:08;;;;;;;5.78;3.97;;;-3.60;99.90;;;;;;2089219;28;20200;-65
2021/01/26 01:32:08;;;;;;;5.40;3.97;;;-3.60;99.90;;;;;;2089680;28;20177;-65
2021/01/26 01:33:09;;;;;;;6.80;3.73;;;-3.60;99.90;;;;;;2090468;28;20716;-66
2021/01/26 01:34:10;;;;;;;5.53;3.90;;;-3.60;99.90;;;;;;2090276;28;20187;-65
2021/01/26 01:35:12;;;;;;;5.37;3.67;;;-3.60;99.90;;;;;;2090348;28;20215;-65
2021/01/26 01:36:12;;;;;;;6.32;4.13;;;-3.60;99.90;;;;;;2090320;28;20172;-65
2021/01/26 01:37:13;;;;;;;6.50;3.90;;;-3.50;99.90;;;;;;2090175;28;20246;-65
2021/01/26 01:38:14;;;;;;;5.77;3.93;;;-3.50;99.90;;;;;;2090415;28;20258;-66
2021/01/26 01:39:15;;;;;;;5.40;4.23;;;-3.50;99.90;;;;;;2090292;28;20184;-66
2021/01/26 01:40:32;;;;;;;5.90;4.03;;;-3.50;99.90;;;;;;2090316;28;20180;-65
2021/01/26 01:41:36;;;;;;;5.70;3.85;;;-3.50;99.90;;;;;;2089124;28;20585;-65
2021/01/26 01:42:36;;;;;;;6.85;3.63;;;-3.50;99.90;;;;;;2089409;28;20241;-65
2021/01/26 01:43:37;;;;;;;6.00;4.03;;;-3.50;99.90;;;;;;2090259;28;20208;-65
2021/01/26 01:44:39;;;;;;;5.60;3.90;;;-3.50;99.90;;;;;;2090138;28;20200;-66
2021/01/26 01:45:39;;;;;;;4.70;3.50;;;-3.40;99.90;;;;;;2090225;28;20535;-65
2021/01/26 01:46:47;;;;;;;5.93;3.70;;;-3.30;99.90;;;;;;2090161;28;20191;-66
2021/01/26 01:48:02;;;;;;;7.35;3.97;;;-3.30;99.90;;;;;;2089646;28;20203;-66
2021/01/26 01:49:06;;;;;;;6.82;3.72;;;-3.20;99.90;;;;;;2089739;28;20192;-66
2021/01/26 01:50:14;;;;;;;5.78;4.07;;;-3.20;99.90;;;;;;2089551;28;20172;-66
2021/01/26 01:51:21;;;;;;;5.03;3.65;;;-3.20;99.90;;;;;;2089054;28;20169;-65
2021/01/26 01:52:25;;;;;;;5.65;3.60;;;-3.20;99.90;;;;;;2089569;28;20248;-66
2021/01/26 01:53:41;;;;;;;5.85;3.78;;;-3.20;99.90;;;;;;2089547;28;20798;-65
2021/01/26 01:54:50;;;;;;;5.63;3.55;;;-3.20;99.90;;;;;;2089569;28;20199;-65
2021/01/26 01:56:29;;;;;;;6.38;4.13;;;-3.20;99.90;;;;;;2082386;28;20253;-65
2021/01/26 01:57:34;;;;;;;6.50;4.13;;;-3.30;99.90;;;;;;2087064;28;20184;-65
2021/01/26 01:58:45;;;;;;;5.53;3.90;;;-3.30;99.90;;;;;;2081995;28;20177;-66
2021/01/26 01:59:52;;;;;;;5.07;3.63;;;-3.30;99.90;;;;;;2082763;28;20197;-66
2021/01/26 02:00:59;;;;;;;6.38;4.15;;;-3.30;99.90;;;;;;2089067;28;20581;-66
2021/01/26 02:02:03;;;;;;;6.60;3.85;;;-3.30;99.90;;;;;;2090036;28;20250;-66
2021/01/26 02:03:14;;;;;;;6.20;4.18;;;-3.30;99.90;;;;;;2090094;28;20181;-65
2021/01/26 02:04:20;;;;;;;5.45;4.10;;;-3.20;99.90;;;;;;2089545;28;20187;-65
2021/01/26 02:05:22;;;;;;;6.47;4.30;;;-3.30;99.90;;;;;;2081955;28;20204;-65
2021/01/26 02:06:26;;;;;;;5.15;3.90;;;-3.30;99.90;;;;;;2081675;28;20198;-66
2021/01/26 02:07:29;;;;;;;5.43;3.92;;;-3.20;99.90;;;;;;2081824;28;20304;-66
2021/01/26 02:08:40;;;;;;;7.13;4.53;;;-3.20;99.90;;;;;;2081606;28;20185;-65
2021/01/26 02:09:41;;;;;;;5.60;3.42;;;-3.20;99.90;;;;;;2089417;28;20179;-65
2021/01/26 02:10:43;;;;;;;6.07;4.00;;;-3.20;99.90;;;;;;2090150;28;20261;-65
2021/01/26 02:11:45;;;;;;;7.07;4.45;;;-3.10;99.90;;;;;;2089429;28;20191;-66
2021/01/26 02:12:46;;;;;;;6.78;4.13;;;-3.10;99.90;;;;;;2090308;28;20168;-65
2021/01/26 02:13:47;;;;;;;5.97;4.13;;;-3.10;99.90;;;;;;2090156;28;20557;-66
2021/01/26 02:14:53;;;;;;;6.37;4.47;;;-3.00;99.90;;;;;;2091830;28;20335;-65
2021/01/26 02:15:59;;;;;;;8.27;4.47;;;-3.00;99.90;;;;;;2090589;28;20180;-65
2021/01/26 02:17:09;;;;;;;6.45;4.25;;;-3.00;99.90;;;;;;2090705;28;20169;-64
2021/01/26 02:18:22;;;;;;;5.95;4.05;;;-2.90;99.90;;;;;;2091543;28;20217;-64
2021/01/26 02:20:06;;;;;;;5.68;3.60;;;-2.90;99.90;;;;;;2090227;28;20287;-65
2021/01/26 02:22:04;;;;;;;4.72;3.15;;;-2.90;99.90;;;;;;2091095;28;20168;-66
2021/01/26 02:23:41;;;;;;;6.25;3.70;;;-2.90;99.90;;;;;;2067886;28;20202;-65
2021/01/26 02:25:20;;;;;;;6.15;3.70;;;-2.90;99.90;;;;;;2090024;28;20210;-65
2021/01/26 02:27:08;;;;;;;5.38;3.55;;;-2.80;99.90;;;;;;2089351;28;20245;-65
2021/01/26 02:28:30;;;;;;;5.55;3.42;;;-2.80;99.90;;;;;;2087609;28;20183;-65
2021/01/26 02:29:58;;;;;;;5.43;4.03;;;-2.80;99.90;;;;;;2083826;28;20561;-64
2021/01/26 02:31:40;;;;;;;5.25;3.78;;;-2.70;99.90;;;;;;2084465;28;20172;-65
2021/01/26 02:33:05;;;;;;;6.32;3.72;;;-2.70;99.90;;;;;;2089775;28;20623;-65
2021/01/26 02:34:44;;;;;;;5.25;3.70;;;-2.60;99.90;;;;;;2089933;28;20214;-65
2021/01/26 02:35:50;;;;;;;6.30;4.15;;;-2.60;99.90;;;;;;2071532;28;20182;-65
2021/01/26 02:37:34;;;;;;;6.55;4.00;;;-2.60;99.90;;;;;;2089999;28;20180;-65
2021/01/26 02:39:31;;;;;;;7.22;3.83;;;-2.60;99.90;;;;;;2089407;28;20599;-65
2021/01/26 02:40:51;;;;;;;6.53;4.18;;;-2.60;99.90;;;;;;2089857;28;20687;-66
2021/01/26 02:42:40;;;;;;;9.50;4.18;;;-2.60;99.90;;;;;;2089845;28;20177;-66
2021/01/26 02:43:52;;;;;;;6.30;3.90;;;-2.50;99.90;;;;;;2089284;28;20176;-65
2021/01/26 02:45:26;;;;;;;6.38;3.67;;;-2.50;99.90;;;;;;2082464;28;20193;-66
2021/01/26 02:46:55;;;;;;;6.60;4.28;;;-2.50;99.90;;;;;;2074773;28;20216;-66
2021/01/26 02:48:33;;;;;;;7.35;4.10;;;-2.50;99.90;;;;;;2085949;28;20172;-65
2021/01/26 02:49:49;;;;;;;6.78;4.22;;;-2.50;99.90;;;;;;2089558;28;20251;-65
2021/01/26 02:51:15;;;;;;;5.53;3.83;;;-2.50;99.90;;;;;;2088751;28;20184;-66
2021/01/26 02:52:52;;;;;;;6.90;4.45;;;-2.50;99.90;;;;;;2084484;28;20172;-65
2021/01/26 02:54:05;;;;;;;8.40;4.20;;;-2.50;99.90;;;;;;2085428;28;20219;-66
2021/01/26 02:55:22;;;;;;;6.75;4.20;;;-2.40;99.90;;;;;;2082537;28;20193;-66
2021/01/26 02:56:48;;;;;;;5.88;3.80;;;-2.50;99.90;;;;;;2083067;28;20181;-65
2021/01/26 02:58:05;;;;;;;6.47;4.00;;;-2.50;99.90;;;;;;2089500;28;20180;-66
2021/01/26 02:59:31;;;;;;;6.50;3.72;;;-2.50;99.90;;;;;;2089680;28;20181;-65
2021/01/26 03:00:35;;;;;;;6.13;3.67;;;-2.50;99.90;;;;;;2089121;28;20173;-65
2021/01/26 03:01:52;;;;;;;9.27;4.50;;;-2.40;99.90;;;;;;2080601;28;20192;-66
2021/01/26 03:03:26;;;;;;;6.43;4.32;;;-2.40;99.90;;;;;;2082715;28;20221;-65
2021/01/26 03:04:41;;;;;;;6.32;3.92;;;-2.40;99.90;;;;;;2089289;28;20615;-66
2021/01/26 03:06:02;;;;;;;8.60;4.35;;;-2.40;99.90;;;;;;2088846;28;20176;-66
2021/01/26 03:07:05;;;;;;;5.22;3.30;;;-2.40;99.90;;;;;;2083774;28;20174;-65
2021/01/26 03:08:14;;;;;;;5.60;3.78;;;-2.50;99.90;;;;;;2081098;28;20220;-66
2021/01/26 03:09:40;;;;;;;6.00;3.90;;;-2.50;99.90;;;;;;2089981;28;20172;-65
2021/01/26 03:10:51;;;;;;;6.85;4.18;;;-2.40;99.90;;;;;;2089078;28;20626;-65
2021/01/26 03:12:14;;;;;;;6.13;4.00;;;-2.40;99.90;;;;;;2081986;28;20279;-66
2021/01/26 03:13:19;;;;;;;5.95;4.00;;;-2.40;99.90;;;;;;2089319;28;20256;-66
2021/01/26 03:14:44;;;;;;;6.47;4.35;;;-2.40;99.90;;;;;;2089566;28;20176;-65
2021/01/26 03:16:09;;;;;;;6.07;3.60;;;-2.40;99.90;;;;;;2055806;28;20233;-65
2021/01/26 03:17:25;;;;;;;6.63;3.58;;;-2.40;99.90;;;;;;2092252;28;20317;-66
2021/01/26 03:18:44;;;;;;;4.85;3.17;;;-2.40;99.90;;;;;;2088970;28;20167;-66
2021/01/26 03:19:50;;;;;;;6.45;3.92;;;-2.40;99.90;;;;;;2083247;28;20173;-66
2021/01/26 03:20:55;;;;;;;7.32;3.95;;;-2.50;99.90;;;;;;2081526;28;20185;-66
2021/01/26 03:21:59;;;;;;;9.50;4.20;;;-2.40;99.90;;;;;;2081231;28;20541;-66
2021/01/26 03:23:08;;;;;;;5.57;3.42;;;-2.40;99.90;;;;;;2081183;28;20185;-65
2021/01/26 03:24:24;;;;;;;5.53;3.78;;;-2.50;99.90;;;;;;2088911;28;20635;-65
2021/01/26 03:25:27;;;;;;;5.60;3.15;;;-2.50;99.90;;;;;;2089558;28;20165;-65
2021/01/26 03:26:28;;;;;;;4.80;3.60;;;-2.50;99.90;;;;;;2088867;28;20676;-65
2021/01/26 03:27:35;;;;;;;5.57;3.80;;;-2.40;99.90;;;;;;2088892;28;20190;-66
2021/01/26 03:28:37;;;;;;;7.50;3.40;;;-2.40;99.90;;;;;;2088950;28;20160;-65
2021/01/26 03:29:41;;;;;;;4.57;3.40;;;-2.50;99.90;;;;;;2080898;28;20656;-66
2021/01/26 03:30:48;;;;;;;4.80;3.45;;;-2.50;99.90;;;;;;2080884;28;20604;-66
2021/01/26 03:31:53;;;;;;;5.45;3.53;;;-2.50;99.90;;;;;;2081294;28;20231;-65
2021/01/26 03:33:11;;;;;;;5.70;3.50;;;-2.40;99.90;;;;;;2081261;28;20177;-65
2021/01/26 03:34:12;;;;;;;5.10;3.45;;;-2.40;99.90;;;;;;2083027;28;20161;-66
2021/01/26 03:35:14;;;;;;;5.70;4.03;;;-2.40;99.90;;;;;;2089000;28;20192;-64
2021/01/26 03:36:16;;;;;;;6.28;3.67;;;-2.50;99.90;;;;;;2088732;28;20231;-66
2021/01/26 03:37:16;;;;;;;7.32;3.60;;;-2.50;99.90;;;;;;2088848;28;20528;-66
2021/01/26 03:38:28;;;;;;;6.43;3.97;;;-2.50;99.90;;;;;;2089395;28;20187;-65
2021/01/26 03:39:29;;;;;;;5.55;3.38;;;-2.50;99.90;;;;;;2088861;28;20173;-66
2021/01/26 03:40:30;;;;;;;6.63;4.50;;;-2.50;99.90;;;;;;2088779;28;20602;-66
2021/01/26 03:41:30;;;;;;;5.27;3.57;;;-2.50;99.90;;;;;;2088638;28;20173;-66
2021/01/26 03:42:34;;;;;;;4.87;3.53;;;-2.50;99.90;;;;;;2089307;28;20200;-66
2021/01/26 03:43:35;;;;;;;5.82;3.90;;;-2.50;99.90;;;;;;2088837;28;20174;-66
2021/01/26 03:44:36;;;;;;;4.82;3.25;;;-2.50;99.90;;;;;;2088825;28;20225;-66
2021/01/26 03:45:37;;;;;;;5.27;3.70;;;-2.50;99.90;;;;;;2089375;28;20177;-65
2021/01/26 03:46:46;;;;;;;5.03;3.43;;;-2.50;99.90;;;;;;2089475;28;20656;-66
2021/01/26 03:48:08;;;;;;;5.38;3.70;;;-2.50;99.90;;;;;;2089297;28;20263;-65
2021/01/26 03:49:27;;;;;;;4.72;3.40;;;-2.50;99.90;;;;;;2088805;28;20338;-65
2021/01/26 03:51:39;;;;;;;5.32;3.45;;;-2.50;99.90;;;;;;2089015;28;20203;-66
2021/01/26 03:52:45;;;;;;;5.63;3.45;;;-2.50;99.90;;;;;;2063748;28;20237;-66
2021/01/26 03:54:07;;;;;;;5.72;3.70;;;-2.50;99.90;;;;;;2083575;28;20264;-66
2021/01/26 03:55:43;;;;;;;6.68;4.18;;;-2.50;99.90;;;;;;2089510;28;20285;-66
2021/01/26 03:57:29;;;;;;;7.55;3.60;;;-2.50;99.90;;;;;;2074747;28;20186;-66
2021/01/26 03:58:54;;;;;;;5.07;3.47;;;-2.50;99.90;;;;;;2078091;28;20584;-67
2021/01/26 04:00:27;;;;;;;5.20;3.15;;;-2.50;99.90;;;;;;2075469;28;20176;-67
2021/01/26 04:01:42;;;;;;;5.97;3.70;;;-2.60;99.90;;;;;;2080355;28;20177;-67
2021/01/26 04:03:21;;;;;;;6.30;3.72;;;-2.60;99.90;;;;;;2080582;28;20212;-65
2021/01/26 04:04:35;;;;;;;8.07;4.20;;;-2.60;99.90;;;;;;2080810;28;20187;-66
2021/01/26 04:05:49;;;;;;;7.32;3.75;;;-2.60;99.90;;;;;;2080498;28;20762;-66
2021/01/26 04:07:03;;;;;;;7.57;4.60;;;-2.60;99.90;;;;;;2080347;28;20184;-66
2021/01/26 04:08:48;;;;;;;7.53;4.40;;;-2.60;99.90;;;;;;2074046;28;20170;-66
2021/01/26 04:09:58;;;;;;;5.32;3.88;;;-2.60;99.90;;;;;;2055632;28;20191;-66
2021/01/26 04:11:27;;;;;;;7.80;4.25;;;-2.60;99.90;;;;;;2071602;28;20216;-66
2021/01/26 04:12:33;;;;;;;5.15;3.55;;;-2.60;99.90;;;;;;2076045;28;20169;-67
2021/01/26 04:13:58;;;;;;;5.70;3.75;;;-2.60;99.90;;;;;;2080615;28;20542;-66
2021/01/26 04:15:24;;;;;;;7.43;4.22;;;-2.60;99.90;;;;;;2080907;28;20653;-66
2021/01/26 04:16:32;;;;;;;6.72;4.43;;;-2.60;99.90;;;;;;2080457;28;20195;-66
2021/01/26 04:17:40;;;;;;;7.65;4.55;;;-2.70;99.90;;;;;;2080580;28;20626;-66
2021/01/26 04:18:42;;;;;;;7.25;4.68;;;-2.80;99.90;;;;;;2073182;28;20273;-66
2021/01/26 04:19:49;;;;;;;6.35;4.00;;;-2.80;99.90;;;;;;2072417;28;20183;-66
2021/01/26 04:20:50;;;;;;;5.82;4.05;;;-2.80;99.90;;;;;;2072624;28;20181;-66
2021/01/26 04:21:51;;;;;;;6.85;4.25;;;-2.70;99.90;;;;;;2072139;28;20195;-66
2021/01/26 04:22:58;;;;;;;6.65;4.65;;;-2.80;99.90;;;;;;2080218;28;20184;-66
2021/01/26 04:23:59;;;;;;;6.35;3.58;;;-2.70;99.90;;;;;;2080940;28;20173;-66
2021/01/26 04:25:01;;;;;;;3.75;2.70;;;-2.70;99.90;;;;;;2080613;28;20212;-65
2021/01/26 04:26:14;;;;;;;5.15;3.30;;;-2.70;99.90;;;;;;2081218;28;20213;-69
2021/01/26 04:27:20;;;;;;;5.70;3.40;;;-2.70;99.90;;;;;;2081242;28;20698;-66
2021/01/26 04:28:38;;;;;;;5.25;3.55;;;-2.70;99.90;;;;;;2081441;28;20174;-66
2021/01/26 04:29:39;;;;;;;5.35;3.42;;;-2.70;99.90;;;;;;2088868;28;20176;-65
2021/01/26 04:30:41;;;;;;;6.03;3.20;;;-2.70;99.90;;;;;;2088693;28;20217;-66
2021/01/26 04:31:42;;;;;;;5.80;3.72;;;-2.70;99.90;;;;;;2080659;28;20182;-65
2021/01/26 04:32:42;;;;;;;5.43;3.77;;;-2.60;99.90;;;;;;2080357;28;20204;-65
2021/01/26 04:33:44;;;;;;;5.70;3.37;;;-2.70;99.90;;;;;;2080372;28;20649;-65
2021/01/26 04:34:45;;;;;;;4.70;3.25;;;-2.60;99.90;;;;;;2081030;28;20292;-66
2021/01/26 04:35:46;;;;;;;4.53;3.55;;;-2.60;99.90;;;;;;2080735;28;20191;-66
2021/01/26 04:36:47;;;;;;;6.90;3.90;;;-2.60;99.90;;;;;;2080842;28;20644;-66
2021/01/26 04:37:47;;;;;;;4.57;3.37;;;-2.60;99.90;;;;;;2080991;28;20185;-66
2021/01/26 04:38:49;;;;;;;6.13;4.23;;;-2.60;99.90;;;;;;2081056;28;20194;-66
2021/01/26 04:39:49;;;;;;;6.45;4.40;;;-2.60;99.90;;;;;;2080980;28;20189;-65
2021/01/26 04:40:55;;;;;;;7.37;4.17;;;-2.60;99.90;;;;;;2080121;28;20286;-66
2021/01/26 04:42:08;;;;;;;7.78;3.97;;;-2.60;99.90;;;;;;2080847;28;20566;-65
2021/01/26 04:43:42;;;;;;;5.32;3.72;;;-2.60;99.90;;;;;;2081449;28;20170;-66
2021/01/26 04:45:05;;;;;;;5.60;3.35;;;-2.60;99.90;;;;;;2072747;28;20284;-65
2021/01/26 04:46:34;;;;;;;4.55;2.95;;;-2.60;99.90;;;;;;2072687;28;20174;-65
2021/01/26 04:47:51;;;;;;;5.97;2.83;;;-2.60;99.90;;;;;;2072152;28;20661;-66
2021/01/26 04:49:23;;;;;;;4.50;3.17;;;-2.60;99.90;;;;;;2074311;28;20177;-65
2021/01/26 04:50:40;;;;;;;4.40;3.00;;;-2.60;99.90;;;;;;2071977;28;20220;-66
2021/01/26 04:52:13;;;;;;;3.97;2.85;;;-2.50;99.90;;;;;;2073876;28;20186;-66
2021/01/26 04:53:51;;;;;;;6.13;3.40;;;-2.50;99.90;;;;;;2076217;28;20205;-65
2021/01/26 04:55:17;;;;;;;4.85;3.15;;;-2.50;99.90;;;;;;2071996;28;20213;-67
2021/01/26 04:56:51;;;;;;;4.70;3.03;;;-2.50;99.90;;;;;;2072291;28;20177;-66
2021/01/26 04:58:25;;;;;;;4.15;2.83;;;-2.50;99.90;;;;;;2072641;28;20174;-65
2021/01/26 04:59:48;;;;;;;3.72;2.40;;;-2.50;99.90;;;;;;2072784;28;20629;-66
2021/01/26 05:01:35;;;;;;;4.07;2.80;;;-2.50;99.90;;;;;;2071646;28;20194;-66
2021/01/26 05:03:30;;;;;;;5.05;3.05;;;-2.50;99.90;;;;;;2078119;28;20665;-66
2021/01/26 05:04:48;;;;;;;4.38;2.85;;;-2.40;99.90;;;;;;2056710;28;20219;-66
2021/01/26 05:05:59;;;;;;;6.35;3.33;;;-2.50;99.90;;;;;;2072112;28;20167;-66
2021/01/26 05:07:12;;;;;;;5.80;3.20;;;-2.50;99.90;;;;;;2072161;28;20649;-66
2021/01/26 05:08:26;;;;;;;6.82;3.28;;;-2.50;99.90;;;;;;2072629;28;20195;-66
2021/01/26 05:09:38;;;;;;;4.50;3.00;;;-2.50;99.90;;;;;;2072580;28;20547;-65
2021/01/26 05:10:51;;;;;;;3.90;2.95;;;-2.40;99.90;;;;;;2071985;28;20170;-66
2021/01/26 05:11:54;;;;;;;3.75;2.88;;;-2.40;99.90;;;;;;2073721;28;20265;-66
2021/01/26 05:13:05;;;;;;;4.05;2.83;;;-2.40;99.90;;;;;;2072004;28;20183;-66
2021/01/26 05:14:18;;;;;;;5.53;2.58;;;-2.40;99.90;;;;;;2073375;28;20165;-66
2021/01/26 05:15:25;;;;;;;3.63;2.88;;;-2.40;99.90;;;;;;2072223;28;20185;-65
2021/01/26 05:16:39;;;;;;;4.05;2.92;;;-2.40;99.90;;;;;;2072849;28;20633;-66
2021/01/26 05:18:00;;;;;;;7.70;3.42;;;-2.40;99.90;;;;;;2073271;28;20258;-66
2021/01/26 05:19:23;;;;;;;4.43;2.75;;;-2.40;99.90;;;;;;2076164;28;20189;-66
2021/01/26 05:20:28;;;;;;;3.15;2.50;;;-2.50;99.90;;;;;;2079000;28;20711;-65
2021/01/26 05:21:35;;;;;;;4.90;2.95;;;-2.50;99.90;;;;;;2072980;28;20197;-66
2021/01/26 05:22:52;;;;;;;4.60;3.05;;;-2.50;99.90;;;;;;2073780;28;20714;-66
2021/01/26 05:24:01;;;;;;;4.78;3.38;;;-2.50;99.90;;;;;;2073608;28;20189;-66
2021/01/26 05:25:13;;;;;;;4.15;2.88;;;-2.50;99.90;;;;;;2090292;23;20212;-66
2021/01/26 05:26:14;;;;;;;4.35;3.05;;;-2.40;99.90;;;;;;2081847;28;20181;-66
2021/01/26 05:27:14;;;;;;;6.33;3.60;;;-2.50;99.90;;;;;;2081738;28;20182;-64
2021/01/26 05:28:18;;;;;;;5.00;2.67;;;-2.50;99.90;;;;;;2082313;28;20301;-66
2021/01/26 05:29:19;;;;;;;6.72;3.00;;;-2.50;99.90;;;;;;2082252;28;20179;-65
2021/01/26 05:30:32;;;;;;;4.33;2.90;;;-2.50;99.90;;;;;;2082168;28;20210;-65
2021/01/26 05:31:34;;;;;;;5.75;3.42;;;-2.50;99.90;;;;;;2081636;28;20166;-66
2021/01/26 05:32:36;;;;;;;4.25;3.00;;;-2.50;99.90;;;;;;2082294;28;20227;-65
2021/01/26 05:33:37;;;;;;;4.28;2.90;;;-2.50;99.90;;;;;;2081614;28;20201;-66
2021/01/26 05:34:40;;;;;;;4.57;2.70;;;-2.50;99.90;;;;;;2081477;28;20941;-65
2021/01/26 05:35:50;;;;;;;3.30;2.50;;;-2.50;99.90;;;;;;2073851;28;20244;-66
2021/01/26 05:36:51;;;;;;;4.00;3.10;;;-2.50;99.90;;;;;;2073361;28;20174;-66
2021/01/26 05:37:54;;;;;;;5.45;3.40;;;-2.40;99.90;;;;;;2065264;28;20188;-66
2021/01/26 05:38:55;;;;;;;4.60;3.10;;;-2.40;99.90;;;;;;2065646;28;20187;-63
2021/01/26 05:40:18;;;;;;;3.97;3.00;;;-2.40;99.90;;;;;;2073371;28;20178;-66
2021/01/26 05:41:20;;;;;;;4.78;3.25;;;-2.40;99.90;;;;;;2073344;28;20657;-66
2021/01/26 05:42:24;;;;;;;5.28;3.33;;;-2.40;99.90;;;;;;2073846;28;20239;-65
2021/01/26 05:43:31;;;;;;;4.97;3.20;;;-2.40;99.90;;;;;;2065170;28;20219;-63
2021/01/26 05:44:35;;;;;;;3.70;2.70;;;-2.40;99.90;;;;;;2059053;28;20182;-64
2021/01/26 05:45:41;;;;;;;4.30;2.92;;;-2.30;99.90;;;;;;2073232;28;20181;-65
2021/01/26 05:46:45;;;;;;;4.03;3.10;;;-2.30;99.90;;;;;;2073311;28;20282;-66
2021/01/26 05:47:46;;;;;;;5.78;3.65;;;-2.30;99.90;;;;;;2073241;28;20173;-66
2021/01/26 05:48:49;;;;;;;7.73;4.37;;;-2.40;99.90;;;;;;2073820;28;20178;-64
2021/01/26 05:49:50;;;;;;;7.45;3.78;;;-2.40;99.90;;;;;;2073228;28;20182;-66
2021/01/26 05:51:13;;;;;;;3.88;2.58;;;-2.40;99.90;;;;;;2064568;28;20269;-66
2021/01/26 05:52:15;;;;;;;6.43;3.75;;;-2.40;99.90;;;;;;2068028;28;20231;-65
2021/01/26 05:53:20;;;;;;;2.92;1.98;;;-2.40;99.90;;;;;;2065247;28;20182;-64
2021/01/26 05:54:21;;;;;;;3.05;1.95;;;-2.40;99.90;;;;;;2065587;28;20209;-65
2021/01/26 05:55:27;;;;;;;4.38;2.55;;;-2.40;99.90;;;;;;2065182;28;20331;-65
2021/01/26 05:56:29;;;;;;;7.40;2.38;;;-2.30;99.90;;;;;;2065729;28;20254;-65
2021/01/26 05:57:34;;;;;;;4.38;3.00;;;-2.30;99.90;;;;;;2073310;28;20204;-65
2021/01/26 05:58:40;;;;;;;5.20;2.80;;;-2.30;99.90;;;;;;2073215;28;20183;-65
2021/01/26 05:59:41;;;;;;;5.05;2.63;;;-2.30;99.90;;;;;;2057967;28;20193;-65
2021/01/26 06:00:41;;;;;;;3.80;2.83;;;-2.30;99.90;;;;;;2056916;28;20185;-63
2021/01/26 06:01:43;;;;;;;3.73;2.90;;;-2.30;99.90;;;;;;2064709;28;20689;-66
2021/01/26 06:02:45;;;;;;;3.35;2.47;;;-2.40;99.90;;;;;;2073126;28;20244;-66